createdAt,value
2022-09-30T00:00:29.991Z,14.30
2022-09-30T00:03:06.672Z,14.31
2022-09-30T00:05:42.149Z,14.28
2022-09-30T00:08:15.798Z,14.28
2022-09-30T00:10:49.502Z,14.28
2022-09-30T00:13:28.771Z,14.28
2022-09-30T00:16:03.404Z,14.29
2022-09-30T00:18:55.637Z,14.33
2022-09-30T00:21:30.716Z,14.31
2022-09-30T00:24:04.899Z,14.31
2022-09-30T00:26:40.026Z,14.32
2022-09-30T00:29:15.606Z,14.33
2022-09-30T00:31:49.647Z,14.32
2022-09-30T00:34:28.608Z,14.34
2022-09-30T00:37:04.489Z,14.34
2022-09-30T00:39:39.672Z,14.35
2022-09-30T00:42:16.381Z,14.39
2022-09-30T00:45:06.132Z,14.40
2022-09-30T00:47:53.486Z,14.42
2022-09-30T00:50:36.597Z,14.45
2022-09-30T00:53:15.343Z,14.45
2022-09-30T00:55:56.009Z,14.45
2022-09-30T00:58:35.135Z,14.46
2022-09-30T01:01:11.450Z,14.45
2022-09-30T01:03:54.007Z,14.48
2022-09-30T01:06:32.732Z,14.47
2022-09-30T01:09:06.359Z,14.46
2022-09-30T01:11:42.099Z,14.47
2022-09-30T01:14:20.096Z,14.47
2022-09-30T01:17:06.750Z,14.46
2022-09-30T01:20:20.045Z,14.47
2022-09-30T01:23:05.576Z,14.47
2022-09-30T01:26:00.150Z,14.48
2022-09-30T01:29:01.416Z,14.47
2022-09-30T01:31:50.057Z,14.45
2022-09-30T01:34:38.440Z,14.48
2022-09-30T01:37:23.406Z,14.46
2022-09-30T01:40:25.683Z,14.48
2022-09-30T01:43:08.717Z,14.48
2022-09-30T01:45:45.731Z,14.49
2022-09-30T01:48:28.708Z,14.50
2022-09-30T01:51:09.426Z,14.51
2022-09-30T01:53:51.953Z,14.54
2022-09-30T01:56:38.739Z,14.55
2022-09-30T01:59:18.205Z,14.55
2022-09-30T02:01:56.596Z,14.57
2022-09-30T02:04:35.019Z,14.58
2022-09-30T02:07:12.836Z,14.58
2022-09-30T02:09:53.351Z,14.59
2022-09-30T02:12:30.790Z,14.56
2022-09-30T02:15:07.552Z,14.56
2022-09-30T02:17:49.086Z,14.55
2022-09-30T02:20:27.263Z,14.54
2022-09-30T02:23:05.199Z,14.52
2022-09-30T02:25:45.254Z,14.50
2022-09-30T02:28:27.128Z,14.47
2022-09-30T02:31:02.191Z,14.46
2022-09-30T02:33:39.919Z,14.46
2022-09-30T02:36:23.216Z,14.45
2022-09-30T02:39:06.013Z,14.41
2022-09-30T02:41:44.105Z,14.35
2022-09-30T02:44:20.757Z,14.33
2022-09-30T02:46:59.346Z,14.31
2022-09-30T02:49:39.325Z,14.28
2022-09-30T02:52:23.052Z,14.24
2022-09-30T02:55:15.317Z,14.22
2022-09-30T02:57:59.249Z,14.21
2022-09-30T03:00:33.767Z,14.20
2022-09-30T03:03:11.889Z,14.19
2022-09-30T03:05:45.629Z,14.18
2022-09-30T03:08:20.041Z,14.19
2022-09-30T03:10:53.911Z,14.19
2022-09-30T03:13:47.941Z,14.20
2022-09-30T03:16:30.638Z,14.19
2022-09-30T03:19:18.217Z,14.19
2022-09-30T03:22:05.657Z,14.20
2022-09-30T03:24:55.839Z,14.20
2022-09-30T03:27:37.442Z,14.20
2022-09-30T03:30:16.167Z,14.20
2022-09-30T03:32:58.923Z,14.21
2022-09-30T03:35:39.222Z,14.19
2022-09-30T03:38:16.899Z,14.18
2022-09-30T03:41:04.115Z,14.20
2022-09-30T03:43:42.771Z,14.18
2022-09-30T03:46:23.502Z,14.17
2022-09-30T03:49:02.740Z,14.17
2022-09-30T03:51:37.686Z,14.17
2022-09-30T03:54:12.605Z,14.16
2022-09-30T03:56:48.144Z,14.16
2022-09-30T03:59:25.701Z,14.17
2022-09-30T04:01:58.911Z,14.15
2022-09-30T04:04:31.824Z,14.16
2022-09-30T04:07:05.767Z,14.15
2022-09-30T04:09:39.563Z,14.13
2022-09-30T04:12:13.835Z,14.14
2022-09-30T04:14:46.674Z,14.11
2022-09-30T04:17:22.841Z,14.10
2022-09-30T04:19:55.642Z,14.08
2022-09-30T04:22:31.332Z,14.08
2022-09-30T04:25:04.366Z,14.05
2022-09-30T04:27:40.117Z,14.04
2022-09-30T04:30:14.056Z,14.04
2022-09-30T04:32:50.748Z,14.03
2022-09-30T04:35:25.121Z,14.01
2022-09-30T04:37:57.953Z,14.01
2022-09-30T04:40:39.449Z,14.01
2022-09-30T04:43:14.536Z,14.03
2022-09-30T04:45:48.003Z,14.04
2022-09-30T04:48:22.244Z,14.06
2022-09-30T04:50:55.345Z,14.06
2022-09-30T04:53:30.377Z,14.08
2022-09-30T04:56:03.387Z,14.07
2022-09-30T04:58:38.387Z,14.09
2022-09-30T05:01:13.378Z,14.08
2022-09-30T05:03:47.282Z,14.06
2022-09-30T05:06:23.498Z,14.06
2022-09-30T05:08:56.353Z,14.05
2022-09-30T05:11:29.564Z,14.06
2022-09-30T05:14:08.859Z,14.05
2022-09-30T05:16:44.374Z,14.04
2022-09-30T05:19:17.368Z,14.02
2022-09-30T05:21:50.281Z,14.01
2022-09-30T05:24:23.288Z,14.03
2022-09-30T05:26:56.132Z,14.01
2022-09-30T05:29:30.364Z,14.03
2022-09-30T05:32:03.240Z,14.01
2022-09-30T05:34:37.087Z,14.03
2022-09-30T05:37:10.646Z,14.02
2022-09-30T05:39:43.489Z,14.01
2022-09-30T05:42:16.402Z,14.01
2022-09-30T05:44:50.645Z,14.00
2022-09-30T05:47:28.208Z,13.97
2022-09-30T05:50:02.844Z,13.97
2022-09-30T05:52:36.837Z,13.96
2022-09-30T05:55:14.478Z,13.97
2022-09-30T05:57:51.677Z,14.01
2022-09-30T06:00:28.702Z,14.02
2022-09-30T06:03:01.679Z,14.03
2022-09-30T06:05:36.525Z,14.07
2022-09-30T06:08:10.317Z,14.09
2022-09-30T06:10:46.905Z,14.13
2022-09-30T06:13:20.721Z,14.16
2022-09-30T06:15:59.845Z,14.19
2022-09-30T06:18:33.240Z,14.22
2022-09-30T06:21:06.633Z,14.24
2022-09-30T06:23:39.810Z,14.25
2022-09-30T06:26:14.570Z,14.30
2022-09-30T06:28:47.694Z,14.31
2022-09-30T06:31:22.076Z,14.35
2022-09-30T06:33:55.059Z,14.38
2022-09-30T06:36:29.624Z,14.41
2022-09-30T06:39:02.842Z,14.47
2022-09-30T06:41:43.599Z,14.51
2022-09-30T06:44:16.488Z,14.54
2022-09-30T06:46:53.951Z,14.60
2022-09-30T06:49:36.424Z,14.61
2022-09-30T06:52:13.532Z,14.65
2022-09-30T06:54:47.183Z,14.70
2022-09-30T06:57:24.816Z,14.75
2022-09-30T06:59:57.668Z,14.79
2022-09-30T07:02:34.540Z,14.84
2022-09-30T07:05:08.058Z,14.86
2022-09-30T07:07:40.848Z,14.90
2022-09-30T07:10:13.746Z,14.92
2022-09-30T07:12:50.934Z,14.96
2022-09-30T07:15:23.951Z,14.96
2022-09-30T07:17:58.482Z,14.98
2022-09-30T07:20:31.329Z,14.99
2022-09-30T07:23:04.131Z,15.02
2022-09-30T07:25:37.004Z,15.02
2022-09-30T07:28:10.042Z,15.03
2022-09-30T07:30:44.226Z,15.03
2022-09-30T07:33:18.505Z,15.04
2022-09-30T07:35:56.576Z,15.04
2022-09-30T07:38:33.738Z,15.03
2022-09-30T07:41:11.582Z,15.05
2022-09-30T07:43:46.224Z,15.05
2022-09-30T07:46:22.402Z,15.09
2022-09-30T07:49:04.534Z,15.14
2022-09-30T07:51:39.643Z,15.17
2022-09-30T07:54:16.034Z,15.24
2022-09-30T07:57:09.183Z,15.30
2022-09-30T07:59:44.199Z,15.39
2022-09-30T08:02:21.088Z,15.49
2022-09-30T08:04:55.972Z,15.58
2022-09-30T08:07:28.905Z,15.65
2022-09-30T08:10:02.052Z,15.76
2022-09-30T08:12:35.953Z,15.82
2022-09-30T08:15:09.988Z,15.90
2022-09-30T08:17:47.286Z,15.97
2022-09-30T08:20:22.567Z,16.04
2022-09-30T08:22:58.210Z,16.10
2022-09-30T08:25:30.985Z,16.18
2022-09-30T08:28:04.022Z,16.25
2022-09-30T08:30:37.562Z,16.31
2022-09-30T08:33:10.393Z,16.35
2022-09-30T08:35:45.112Z,16.42
2022-09-30T08:38:17.903Z,16.48
2022-09-30T08:40:57.929Z,16.55
2022-09-30T08:43:40.774Z,16.59
2022-09-30T08:46:22.559Z,16.66
2022-09-30T08:49:03.522Z,16.71
2022-09-30T08:51:40.392Z,16.79
2022-09-30T08:54:16.822Z,16.84
2022-09-30T08:56:50.243Z,16.89
2022-09-30T08:59:31.178Z,16.96
2022-09-30T09:02:20.537Z,17.05
2022-09-30T09:04:53.702Z,17.13
2022-09-30T09:07:42.021Z,17.24
2022-09-30T09:10:28.846Z,17.34
2022-09-30T09:13:10.942Z,17.44
2022-09-30T09:15:56.415Z,17.55
2022-09-30T09:18:40.524Z,17.65
2022-09-30T09:21:23.833Z,17.78
2022-09-30T09:24:02.992Z,17.87
2022-09-30T09:26:38.033Z,17.95
2022-09-30T09:29:27.149Z,18.01
2022-09-30T09:32:02.109Z,18.05
2022-09-30T09:34:38.251Z,18.06
2022-09-30T09:37:20.438Z,18.09
2022-09-30T09:40:08.800Z,18.08
2022-09-30T09:43:02.136Z,18.07
2022-09-30T09:45:41.102Z,18.06
2022-09-30T09:48:17.330Z,18.06
2022-09-30T09:50:58.933Z,18.07
2022-09-30T09:53:43.386Z,18.06
2022-09-30T09:56:19.745Z,18.08
2022-09-30T09:59:06.973Z,18.12
2022-09-30T10:01:43.079Z,18.12
2022-09-30T10:04:23.784Z,18.14
2022-09-30T10:07:00.430Z,18.13
2022-09-30T10:09:35.679Z,18.09
2022-09-30T10:12:32.525Z,18.05
2022-09-30T10:15:22.948Z,17.99
2022-09-30T10:17:58.101Z,17.91
2022-09-30T10:20:33.503Z,17.85
2022-09-30T10:23:18.556Z,17.82
2022-09-30T10:26:04.110Z,17.79
2022-09-30T10:28:47.219Z,17.76
2022-09-30T10:31:25.542Z,17.75
2022-09-30T10:34:04.459Z,17.72
2022-09-30T10:36:40.559Z,17.71
2022-09-30T10:39:23.267Z,17.74
2022-09-30T10:42:03.586Z,17.77
2022-09-30T10:44:46.277Z,17.78
2022-09-30T10:47:21.593Z,17.77
2022-09-30T10:50:01.089Z,17.78
2022-09-30T10:52:37.028Z,17.78
2022-09-30T10:55:29.101Z,17.80
2022-09-30T10:58:22.328Z,17.84
2022-09-30T11:01:03.679Z,17.86
2022-09-30T11:03:47.199Z,17.87
2022-09-30T11:06:20.765Z,17.86
2022-09-30T11:09:01.128Z,17.88
2022-09-30T11:11:39.973Z,17.86
2022-09-30T11:14:25.226Z,17.86
2022-09-30T11:17:11.392Z,17.87
2022-09-30T11:19:50.715Z,17.88
2022-09-30T11:22:32.581Z,17.90
2022-09-30T11:25:11.077Z,17.91
2022-09-30T11:28:07.227Z,17.95
2022-09-30T11:30:49.661Z,17.98
2022-09-30T11:33:48.855Z,18.03
2022-09-30T11:36:33.074Z,18.07
2022-09-30T11:39:26.014Z,18.13
2022-09-30T11:42:06.350Z,18.18
2022-09-30T11:44:43.417Z,18.20
2022-09-30T11:47:50.379Z,18.23
2022-09-30T11:51:06.933Z,18.25
2022-09-30T11:53:49.441Z,18.25
2022-09-30T11:56:34.818Z,18.27
2022-09-30T11:59:23.189Z,18.30
2022-09-30T12:02:01.241Z,18.31
2022-09-30T12:04:40.767Z,18.36
2022-09-30T12:07:19.921Z,18.42
2022-09-30T12:09:59.230Z,18.47
2022-09-30T12:12:33.341Z,18.52
2022-09-30T12:15:10.486Z,18.56
2022-09-30T12:17:48.021Z,18.59
2022-09-30T12:20:26.229Z,18.64
2022-09-30T12:23:11.273Z,18.69
2022-09-30T12:25:50.589Z,18.75
2022-09-30T12:28:49.717Z,18.81
2022-09-30T12:31:50.294Z,18.90
2022-09-30T12:34:38.938Z,18.99
2022-09-30T12:37:26.245Z,19.08
2022-09-30T12:40:27.604Z,19.18
2022-09-30T12:43:19.074Z,19.27
2022-09-30T12:46:15.528Z,19.34
2022-09-30T12:48:53.585Z,19.36
2022-09-30T12:51:31.338Z,19.38
2022-09-30T12:54:15.617Z,19.40
2022-09-30T12:56:59.348Z,19.40
2022-09-30T12:59:36.081Z,19.39
2022-09-30T13:02:09.956Z,19.37
2022-09-30T13:04:44.956Z,19.38
2022-09-30T13:07:21.913Z,19.38
2022-09-30T13:10:28.134Z,19.40
2022-09-30T13:13:24.811Z,19.44
2022-09-30T13:16:03.250Z,19.47
2022-09-30T13:19:02.200Z,19.55
2022-09-30T13:21:35.066Z,19.55
2022-09-30T13:24:09.103Z,19.55
2022-09-30T13:27:07.387Z,19.55
2022-09-30T13:29:49.734Z,19.53
2022-09-30T13:32:34.614Z,19.51
2022-09-30T13:35:33.123Z,19.48
2022-09-30T13:38:18.523Z,19.44
2022-09-30T13:41:03.693Z,19.42
2022-09-30T13:43:42.148Z,19.42
2022-09-30T13:46:26.860Z,19.43
2022-09-30T13:49:06.012Z,19.46
2022-09-30T13:51:41.732Z,19.49
2022-09-30T13:54:25.471Z,19.55
2022-09-30T13:56:59.175Z,19.56
2022-09-30T13:59:56.877Z,19.60
2022-09-30T14:03:03.698Z,19.60
2022-09-30T14:05:57.591Z,19.59
2022-09-30T14:08:50.431Z,19.60
2022-09-30T14:12:01.145Z,19.56
2022-09-30T14:15:04.327Z,19.56
2022-09-30T14:18:12.355Z,19.54
2022-09-30T14:21:01.949Z,19.51
2022-09-30T14:23:34.944Z,19.47
2022-09-30T14:26:24.460Z,19.45
2022-09-30T14:29:01.530Z,19.38
2022-09-30T14:31:35.349Z,19.32
2022-09-30T14:34:13.395Z,19.26
2022-09-30T14:36:46.400Z,19.18
2022-09-30T14:39:22.427Z,19.16
2022-09-30T14:41:59.388Z,19.13
2022-09-30T14:44:36.529Z,19.12
2022-09-30T14:47:09.373Z,19.13
2022-09-30T14:49:44.087Z,19.15
2022-09-30T14:52:36.659Z,19.21
2022-09-30T14:55:27.572Z,19.22
2022-09-30T14:58:22.772Z,19.26
2022-09-30T15:01:06.177Z,19.30
2022-09-30T15:03:41.521Z,19.29
2022-09-30T15:06:20.861Z,19.33
2022-09-30T15:09:02.567Z,19.35
2022-09-30T15:11:39.726Z,19.33
2022-09-30T15:14:18.801Z,19.34
2022-09-30T15:16:53.359Z,19.32
2022-09-30T15:19:28.039Z,19.28
2022-09-30T15:22:05.980Z,19.29
2022-09-30T15:24:40.702Z,19.27
2022-09-30T15:27:21.001Z,19.22
2022-09-30T15:29:57.198Z,19.18
2022-09-30T15:32:33.799Z,19.11
2022-09-30T15:35:07.879Z,19.00
2022-09-30T15:37:43.571Z,18.91
2022-09-30T15:40:36.564Z,18.81
2022-09-30T15:43:15.752Z,18.67
2022-09-30T15:45:51.296Z,18.55
2022-09-30T15:48:45.326Z,18.44
2022-09-30T15:51:31.004Z,18.30
2022-09-30T15:54:32.360Z,18.20
2022-09-30T15:57:40.229Z,18.12
2022-09-30T16:00:35.789Z,18.04
2022-09-30T16:03:27.068Z,17.99
2022-09-30T16:06:08.718Z,17.94
2022-09-30T16:08:45.323Z,17.90
2022-09-30T16:11:23.566Z,17.85
2022-09-30T16:13:58.049Z,17.77
2022-09-30T16:16:33.651Z,17.69
2022-09-30T16:19:07.596Z,17.60
2022-09-30T16:21:45.438Z,17.55
2022-09-30T16:24:49.478Z,17.46
2022-09-30T16:27:34.088Z,17.39
2022-09-30T16:30:08.346Z,17.30
2022-09-30T16:32:43.218Z,17.26
2022-09-30T16:35:21.366Z,17.21
2022-09-30T16:38:00.382Z,17.17
2022-09-30T16:40:35.844Z,17.12
2022-09-30T16:43:11.754Z,17.10
2022-09-30T16:45:44.938Z,17.06
2022-09-30T16:48:21.289Z,17.03
2022-09-30T16:51:01.830Z,17.01
2022-09-30T16:53:35.166Z,16.98
2022-09-30T16:56:15.469Z,16.94
2022-09-30T16:58:51.330Z,16.91
2022-09-30T17:01:26.489Z,16.85
2022-09-30T17:03:59.334Z,16.82
2022-09-30T17:06:33.595Z,16.76
2022-09-30T17:09:06.994Z,16.72
2022-09-30T17:11:40.246Z,16.68
2022-09-30T17:14:17.210Z,16.65
2022-09-30T17:16:50.355Z,16.60
2022-09-30T17:19:23.818Z,16.56
2022-09-30T17:21:56.767Z,16.54
2022-09-30T17:24:32.546Z,16.53
2022-09-30T17:27:07.832Z,16.50
2022-09-30T17:29:44.010Z,16.50
2022-09-30T17:32:16.817Z,16.46
2022-09-30T17:34:50.856Z,16.46
2022-09-30T17:37:23.917Z,16.44
2022-09-30T17:39:56.749Z,16.42
2022-09-30T17:42:47.595Z,16.40
2022-09-30T17:45:25.985Z,16.40
2022-09-30T17:47:58.795Z,16.36
2022-09-30T17:50:33.636Z,16.35
2022-09-30T17:53:07.663Z,16.33
2022-09-30T17:55:41.114Z,16.30
2022-09-30T17:58:14.754Z,16.27
2022-09-30T18:00:49.630Z,16.24
2022-09-30T18:03:22.720Z,16.16
2022-09-30T18:05:58.835Z,16.14
2022-09-30T18:08:31.955Z,16.07
2022-09-30T18:11:05.676Z,16.02
2022-09-30T18:13:40.242Z,15.99
2022-09-30T18:16:15.104Z,15.95
2022-09-30T18:18:48.686Z,15.91
2022-09-30T18:21:21.597Z,15.88
2022-09-30T18:23:57.407Z,15.85
2022-09-30T18:26:36.054Z,15.82
2022-09-30T18:29:10.960Z,15.78
2022-09-30T18:31:49.334Z,15.76
2022-09-30T18:34:23.370Z,15.72
2022-09-30T18:36:56.140Z,15.70
2022-09-30T18:39:29.279Z,15.65
2022-09-30T18:42:07.722Z,15.62
2022-09-30T18:44:41.883Z,15.58
2022-09-30T18:47:17.550Z,15.56
2022-09-30T18:49:53.021Z,15.52
2022-09-30T18:52:26.801Z,15.49
2022-09-30T18:54:59.810Z,15.47
2022-09-30T18:57:34.170Z,15.46
2022-09-30T19:00:10.527Z,15.44
2022-09-30T19:02:45.486Z,15.45
2022-09-30T19:05:18.589Z,15.45
2022-09-30T19:07:53.333Z,15.45
2022-09-30T19:10:26.386Z,15.43
2022-09-30T19:13:00.037Z,15.44
2022-09-30T19:15:32.956Z,15.44
2022-09-30T19:18:07.377Z,15.44
2022-09-30T19:20:41.130Z,15.44
2022-09-30T19:23:14.346Z,15.43
2022-09-30T19:25:47.453Z,15.44
2022-09-30T19:28:22.456Z,15.44
2022-09-30T19:30:56.198Z,15.44
2022-09-30T19:33:30.743Z,15.46
2022-09-30T19:36:14.374Z,15.44
2022-09-30T19:38:48.622Z,15.46
2022-09-30T19:41:24.191Z,15.46
2022-09-30T19:43:57.566Z,15.46
2022-09-30T19:46:38.946Z,15.44
2022-09-30T19:49:17.854Z,15.46
2022-09-30T19:51:52.576Z,15.46
2022-09-30T19:54:39.945Z,15.45
2022-09-30T19:57:14.040Z,15.45
2022-09-30T19:59:47.022Z,15.42
2022-09-30T20:02:20.498Z,15.42
2022-09-30T20:05:00.688Z,15.42
2022-09-30T20:07:35.116Z,15.39
2022-09-30T20:10:10.637Z,15.39
2022-09-30T20:12:43.889Z,15.36
2022-09-30T20:15:45.990Z,15.31
2022-09-30T20:18:21.997Z,15.26
2022-09-30T20:20:56.967Z,15.17
2022-09-30T20:23:32.047Z,15.05
2022-09-30T20:26:06.148Z,14.94
2022-09-30T20:28:39.507Z,14.84
2022-09-30T20:31:15.474Z,14.72
2022-09-30T20:33:49.122Z,14.58
2022-09-30T20:36:23.852Z,14.46
2022-09-30T20:39:00.278Z,14.35
2022-09-30T20:41:36.900Z,14.25
2022-09-30T20:44:14.160Z,14.13
2022-09-30T20:46:47.026Z,14.02
2022-09-30T20:49:21.813Z,13.94
2022-09-30T20:51:56.281Z,13.84
2022-09-30T20:54:29.100Z,13.73
2022-09-30T20:57:07.131Z,13.64
2022-09-30T20:59:40.532Z,13.54
2022-09-30T21:02:14.311Z,13.47
2022-09-30T21:04:51.944Z,13.39
2022-09-30T21:07:28.334Z,13.32
2022-09-30T21:10:02.665Z,13.24
2022-09-30T21:12:36.979Z,13.17
2022-09-30T21:15:12.079Z,13.10
2022-09-30T21:17:49.918Z,13.03
2022-09-30T21:20:22.898Z,12.96
2022-09-30T21:22:59.467Z,12.91
2022-09-30T21:25:38.714Z,12.84
2022-09-30T21:28:12.741Z,12.77
2022-09-30T21:30:45.596Z,12.70
2022-09-30T21:33:19.369Z,12.65
2022-09-30T21:36:00.031Z,12.63
2022-09-30T21:38:36.839Z,12.58
2022-09-30T21:41:09.684Z,12.53
2022-09-30T21:43:43.856Z,12.47
2022-09-30T21:46:18.512Z,12.43
2022-09-30T21:48:53.747Z,12.39
2022-09-30T21:51:28.307Z,12.34
2022-09-30T21:54:03.611Z,12.33
2022-09-30T21:56:37.523Z,12.28
2022-09-30T21:59:12.217Z,12.23
2022-09-30T22:01:45.352Z,12.18
2022-09-30T22:04:23.084Z,12.14
2022-09-30T22:06:56.934Z,12.08
2022-09-30T22:09:34.851Z,12.04
2022-09-30T22:12:10.251Z,11.98
2022-09-30T22:14:46.812Z,11.94
2022-09-30T22:17:19.595Z,11.90
2022-09-30T22:19:52.476Z,11.84
2022-09-30T22:22:26.390Z,11.80
2022-09-30T22:25:01.571Z,11.76
2022-09-30T22:27:34.974Z,11.70
2022-09-30T22:30:10.630Z,11.67
2022-09-30T22:32:43.516Z,11.61
2022-09-30T22:35:36.227Z,11.57
2022-09-30T22:38:18.674Z,11.53
2022-09-30T22:40:55.662Z,11.50
2022-09-30T22:43:28.771Z,11.45
2022-09-30T22:46:03.192Z,11.43
2022-09-30T22:48:37.030Z,11.41
2022-09-30T22:51:15.851Z,11.40
2022-09-30T22:53:49.498Z,11.39
2022-09-30T22:56:24.162Z,11.39
2022-09-30T22:59:01.805Z,11.34
2022-09-30T23:01:37.365Z,11.33
2022-09-30T23:04:11.417Z,11.33
2022-09-30T23:06:49.445Z,11.32
2022-09-30T23:09:24.354Z,11.28
2022-09-30T23:11:59.475Z,11.27
2022-09-30T23:14:32.548Z,11.24
2022-09-30T23:17:07.291Z,11.22
2022-09-30T23:19:55.850Z,11.19
2022-09-30T23:22:30.984Z,11.16
2022-09-30T23:25:03.887Z,11.15
2022-09-30T23:27:38.543Z,11.13
2022-09-30T23:30:11.905Z,11.11
2022-09-30T23:32:44.986Z,11.12
2022-09-30T23:35:18.775Z,11.10
2022-09-30T23:37:53.614Z,11.13
2022-09-30T23:40:26.757Z,11.15
2022-09-30T23:43:03.973Z,11.17
2022-09-30T23:45:37.865Z,11.21
2022-09-30T23:48:11.131Z,11.24
2022-09-30T23:50:50.207Z,11.29
2022-09-30T23:53:24.366Z,11.35
2022-09-30T23:55:58.800Z,11.42
2022-09-30T23:58:35.777Z,11.50
